sensor_id;sensor_type;location;lat;lon;timestamp;temperature;humidity
64226;DHT22;50545;56.064;26.178;2024-02-26T00:01:32;5.30;99.90
64226;DHT22;50545;56.064;26.178;2024-02-26T00:04:01;5.30;99.90
64226;DHT22;50545;56.064;26.178;2024-02-26T00:06:30;5.30;99.90
64226;DHT22;50545;56.064;26.178;2024-02-26T00:08:58;5.30;99.90
64226;DHT22;50545;56.064;26.178;2024-02-26T00:11:26;5.40;99.90
64226;DHT22;50545;56.064;26.178;2024-02-26T00:13:54;5.40;99.90
64226;DHT22;50545;56.064;26.178;2024-02-26T00:16:21;5.40;99.90
64226;DHT22;50545;56.064;26.178;2024-02-26T00:18:49;5.40;99.90
64226;DHT22;50545;56.064;26.178;2024-02-26T00:21:17;5.30;99.90
64226;DHT22;50545;56.064;26.178;2024-02-26T00:23:44;5.30;99.90
64226;DHT22;50545;56.064;26.178;2024-02-26T00:26:12;5.30;99.90
64226;DHT22;50545;56.064;26.178;2024-02-26T00:28:39;5.40;99.90
64226;DHT22;50545;56.064;26.178;2024-02-26T00:31:07;5.30;99.90
64226;DHT22;50545;56.064;26.178;2024-02-26T00:33:35;5.30;99.90
64226;DHT22;50545;56.064;26.178;2024-02-26T00:36:03;5.30;99.90
64226;DHT22;50545;56.064;26.178;2024-02-26T00:38:31;5.30;99.90
64226;DHT22;50545;56.064;26.178;2024-02-26T00:40:59;5.30;99.90
64226;DHT22;50545;56.064;26.178;2024-02-26T00:43:26;5.30;99.90
64226;DHT22;50545;56.064;26.178;2024-02-26T00:45:54;5.30;99.90
64226;DHT22;50545;56.064;26.178;2024-02-26T00:48:21;5.30;99.90
64226;DHT22;50545;56.064;26.178;2024-02-26T00:50:49;5.30;99.90
64226;DHT22;50545;56.064;26.178;2024-02-26T00:53:17;5.30;99.90
64226;DHT22;50545;56.064;26.178;2024-02-26T00:55:44;5.30;99.90
64226;DHT22;50545;56.064;26.178;2024-02-26T00:58:12;5.30;99.90
64226;DHT22;50545;56.064;26.178;2024-02-26T01:00:39;5.30;99.90
64226;DHT22;50545;56.064;26.178;2024-02-26T01:03:07;5.30;99.90
64226;DHT22;50545;56.064;26.178;2024-02-26T01:05:35;5.30;99.90
64226;DHT22;50545;56.064;26.178;2024-02-26T01:08:03;5.40;99.90
64226;DHT22;50545;56.064;26.178;2024-02-26T01:10:31;5.30;99.90
64226;DHT22;50545;56.064;26.178;2024-02-26T01:12:59;5.30;99.90
64226;DHT22;50545;56.064;26.178;2024-02-26T01:15:26;5.40;99.90
64226;DHT22;50545;56.064;26.178;2024-02-26T01:17:54;5.40;99.90
64226;DHT22;50545;56.064;26.178;2024-02-26T01:20:22;5.40;99.90
64226;DHT22;50545;56.064;26.178;2024-02-26T01:22:49;5.40;99.90
64226;DHT22;50545;56.064;26.178;2024-02-26T01:25:17;5.40;99.90
64226;DHT22;50545;56.064;26.178;2024-02-26T01:27:45;5.40;99.90
64226;DHT22;50545;56.064;26.178;2024-02-26T01:30:13;5.40;99.90
64226;DHT22;50545;56.064;26.178;2024-02-26T01:32:43;5.40;99.90
64226;DHT22;50545;56.064;26.178;2024-02-26T01:35:11;5.40;99.90
64226;DHT22;50545;56.064;26.178;2024-02-26T01:37:39;5.40;99.90
64226;DHT22;50545;56.064;26.178;2024-02-26T01:40:07;5.40;99.90
64226;DHT22;50545;56.064;26.178;2024-02-26T01:42:38;5.40;99.90
64226;DHT22;50545;56.064;26.178;2024-02-26T01:45:06;5.40;99.90
64226;DHT22;50545;56.064;26.178;2024-02-26T01:47:36;5.40;99.90
64226;DHT22;50545;56.064;26.178;2024-02-26T01:50:05;5.50;99.90
64226;DHT22;50545;56.064;26.178;2024-02-26T01:52:33;5.50;99.90
64226;DHT22;50545;56.064;26.178;2024-02-26T01:55:02;5.50;99.90
64226;DHT22;50545;56.064;26.178;2024-02-26T01:57:30;5.50;99.90
64226;DHT22;50545;56.064;26.178;2024-02-26T01:59:57;5.50;99.90
64226;DHT22;50545;56.064;26.178;2024-02-26T02:02:25;5.60;99.90
64226;DHT22;50545;56.064;26.178;2024-02-26T02:04:53;5.60;99.90
64226;DHT22;50545;56.064;26.178;2024-02-26T02:07:21;5.60;99.90
64226;DHT22;50545;56.064;26.178;2024-02-26T02:09:50;5.60;99.90
64226;DHT22;50545;56.064;26.178;2024-02-26T02:12:18;5.60;99.90
64226;DHT22;50545;56.064;26.178;2024-02-26T02:14:46;5.60;99.90
64226;DHT22;50545;56.064;26.178;2024-02-26T02:17:13;5.60;99.90
64226;DHT22;50545;56.064;26.178;2024-02-26T02:19:41;5.60;99.90
64226;DHT22;50545;56.064;26.178;2024-02-26T02:22:08;5.60;99.90
64226;DHT22;50545;56.064;26.178;2024-02-26T02:24:36;5.60;99.90
64226;DHT22;50545;56.064;26.178;2024-02-26T02:27:04;5.60;99.90
64226;DHT22;50545;56.064;26.178;2024-02-26T02:29:32;5.60;99.90
64226;DHT22;50545;56.064;26.178;2024-02-26T02:32:01;5.60;99.90
64226;DHT22;50545;56.064;26.178;2024-02-26T02:34:29;5.60;99.90
64226;DHT22;50545;56.064;26.178;2024-02-26T02:36:57;5.60;99.90
64226;DHT22;50545;56.064;26.178;2024-02-26T02:39:24;5.60;99.90
64226;DHT22;50545;56.064;26.178;2024-02-26T02:41:52;5.50;99.90
64226;DHT22;50545;56.064;26.178;2024-02-26T02:44:19;5.40;99.90
64226;DHT22;50545;56.064;26.178;2024-02-26T02:46:47;5.30;99.90
64226;DHT22;50545;56.064;26.178;2024-02-26T02:49:15;5.20;99.90
64226;DHT22;50545;56.064;26.178;2024-02-26T02:51:44;5.10;99.90
64226;DHT22;50545;56.064;26.178;2024-02-26T02:54:11;5.10;99.90
64226;DHT22;50545;56.064;26.178;2024-02-26T02:56:39;5.10;99.90
64226;DHT22;50545;56.064;26.178;2024-02-26T02:59:07;5.20;99.90
64226;DHT22;50545;56.064;26.178;2024-02-26T03:01:34;5.20;99.90
64226;DHT22;50545;56.064;26.178;2024-02-26T03:04:02;5.20;99.90
64226;DHT22;50545;56.064;26.178;2024-02-26T03:06:30;5.20;99.90
64226;DHT22;50545;56.064;26.178;2024-02-26T03:08:57;5.30;99.90
64226;DHT22;50545;56.064;26.178;2024-02-26T03:11:25;5.30;99.90
64226;DHT22;50545;56.064;26.178;2024-02-26T03:13:53;5.20;99.90
64226;DHT22;50545;56.064;26.178;2024-02-26T03:16:21;5.20;99.90
64226;DHT22;50545;56.064;26.178;2024-02-26T03:18:49;5.20;99.90
64226;DHT22;50545;56.064;26.178;2024-02-26T03:21:16;5.20;99.90
64226;DHT22;50545;56.064;26.178;2024-02-26T03:23:44;5.30;99.90
64226;DHT22;50545;56.064;26.178;2024-02-26T03:26:11;5.30;99.90
64226;DHT22;50545;56.064;26.178;2024-02-26T03:28:41;5.30;99.90
64226;DHT22;50545;56.064;26.178;2024-02-26T03:31:09;5.40;99.90
64226;DHT22;50545;56.064;26.178;2024-02-26T03:33:38;5.40;99.90
64226;DHT22;50545;56.064;26.178;2024-02-26T03:36:05;5.30;99.90
64226;DHT22;50545;56.064;26.178;2024-02-26T03:38:34;5.30;99.90
64226;DHT22;50545;56.064;26.178;2024-02-26T03:41:02;5.30;99.90
64226;DHT22;50545;56.064;26.178;2024-02-26T03:43:29;5.40;99.90
64226;DHT22;50545;56.064;26.178;2024-02-26T03:45:57;5.30;99.90
64226;DHT22;50545;56.064;26.178;2024-02-26T03:48:24;5.40;99.90
64226;DHT22;50545;56.064;26.178;2024-02-26T03:50:53;5.30;99.90
64226;DHT22;50545;56.064;26.178;2024-02-26T03:53:20;5.30;99.90
64226;DHT22;50545;56.064;26.178;2024-02-26T03:55:48;5.30;99.90
64226;DHT22;50545;56.064;26.178;2024-02-26T03:58:16;5.20;99.90
64226;DHT22;50545;56.064;26.178;2024-02-26T04:00:44;5.20;99.90
64226;DHT22;50545;56.064;26.178;2024-02-26T04:03:11;5.20;99.90
64226;DHT22;50545;56.064;26.178;2024-02-26T04:05:39;5.20;99.90
64226;DHT22;50545;56.064;26.178;2024-02-26T04:08:07;5.20;99.90
64226;DHT22;50545;56.064;26.178;2024-02-26T04:10:34;5.10;99.90
64226;DHT22;50545;56.064;26.178;2024-02-26T04:13:02;5.00;99.90
64226;DHT22;50545;56.064;26.178;2024-02-26T04:15:31;5.00;99.90
64226;DHT22;50545;56.064;26.178;2024-02-26T04:17:59;4.90;99.90
64226;DHT22;50545;56.064;26.178;2024-02-26T04:20:26;4.90;99.90
64226;DHT22;50545;56.064;26.178;2024-02-26T04:22:54;4.80;99.90
64226;DHT22;50545;56.064;26.178;2024-02-26T04:25:22;4.70;99.90
64226;DHT22;50545;56.064;26.178;2024-02-26T04:27:49;4.70;99.90
64226;DHT22;50545;56.064;26.178;2024-02-26T04:30:16;4.60;99.90
64226;DHT22;50545;56.064;26.178;2024-02-26T04:32:45;4.60;99.90
64226;DHT22;50545;56.064;26.178;2024-02-26T04:35:13;4.50;99.90
64226;DHT22;50545;56.064;26.178;2024-02-26T04:37:40;4.40;99.90
64226;DHT22;50545;56.064;26.178;2024-02-26T04:40:08;4.20;99.90
64226;DHT22;50545;56.064;26.178;2024-02-26T04:42:36;4.10;99.90
64226;DHT22;50545;56.064;26.178;2024-02-26T04:45:04;4.00;99.90
64226;DHT22;50545;56.064;26.178;2024-02-26T04:47:31;4.00;99.90
64226;DHT22;50545;56.064;26.178;2024-02-26T04:49:59;3.90;99.90
64226;DHT22;50545;56.064;26.178;2024-02-26T04:52:27;3.80;99.90
64226;DHT22;50545;56.064;26.178;2024-02-26T04:54:54;3.80;99.90
64226;DHT22;50545;56.064;26.178;2024-02-26T04:57:22;3.80;99.90
64226;DHT22;50545;56.064;26.178;2024-02-26T04:59:50;3.70;99.90
64226;DHT22;50545;56.064;26.178;2024-02-26T05:02:18;3.70;99.90
64226;DHT22;50545;56.064;26.178;2024-02-26T05:04:45;3.70;99.90
64226;DHT22;50545;56.064;26.178;2024-02-26T05:07:13;3.60;99.90
64226;DHT22;50545;56.064;26.178;2024-02-26T05:09:41;3.60;99.90
64226;DHT22;50545;56.064;26.178;2024-02-26T05:12:10;3.60;99.90
64226;DHT22;50545;56.064;26.178;2024-02-26T05:14:37;3.60;99.90
64226;DHT22;50545;56.064;26.178;2024-02-26T05:17:05;3.50;99.90
64226;DHT22;50545;56.064;26.178;2024-02-26T05:19:33;3.50;99.90
64226;DHT22;50545;56.064;26.178;2024-02-26T05:22:00;3.60;99.90
64226;DHT22;50545;56.064;26.178;2024-02-26T05:24:28;3.60;99.90
64226;DHT22;50545;56.064;26.178;2024-02-26T05:26:56;3.70;99.90
64226;DHT22;50545;56.064;26.178;2024-02-26T05:29:23;3.70;99.90
64226;DHT22;50545;56.064;26.178;2024-02-26T05:31:51;3.80;99.90
64226;DHT22;50545;56.064;26.178;2024-02-26T05:34:18;3.90;99.90
64226;DHT22;50545;56.064;26.178;2024-02-26T05:36:46;4.00;99.90
64226;DHT22;50545;56.064;26.178;2024-02-26T05:39:14;4.00;99.90
64226;DHT22;50545;56.064;26.178;2024-02-26T05:41:46;4.10;99.90
64226;DHT22;50545;56.064;26.178;2024-02-26T05:44:14;4.20;99.90
64226;DHT22;50545;56.064;26.178;2024-02-26T05:46:43;4.20;99.90
64226;DHT22;50545;56.064;26.178;2024-02-26T05:49:10;4.30;99.90
64226;DHT22;50545;56.064;26.178;2024-02-26T05:51:38;4.30;99.90
64226;DHT22;50545;56.064;26.178;2024-02-26T05:54:05;4.30;99.90
64226;DHT22;50545;56.064;26.178;2024-02-26T05:56:33;4.30;99.90
64226;DHT22;50545;56.064;26.178;2024-02-26T05:59:00;4.30;99.90
64226;DHT22;50545;56.064;26.178;2024-02-26T06:01:28;4.40;99.90
64226;DHT22;50545;56.064;26.178;2024-02-26T06:03:56;4.50;99.90
64226;DHT22;50545;56.064;26.178;2024-02-26T06:06:23;4.50;99.90
64226;DHT22;50545;56.064;26.178;2024-02-26T06:08:51;4.60;99.90
64226;DHT22;50545;56.064;26.178;2024-02-26T06:11:18;4.60;99.90
64226;DHT22;50545;56.064;26.178;2024-02-26T06:13:46;4.60;99.90
64226;DHT22;50545;56.064;26.178;2024-02-26T06:16:14;4.60;99.90
64226;DHT22;50545;56.064;26.178;2024-02-26T06:18:42;4.60;99.90
64226;DHT22;50545;56.064;26.178;2024-02-26T06:21:10;4.60;99.90
64226;DHT22;50545;56.064;26.178;2024-02-26T06:23:40;4.70;99.90
64226;DHT22;50545;56.064;26.178;2024-02-26T06:26:08;4.70;99.90
64226;DHT22;50545;56.064;26.178;2024-02-26T06:28:35;4.80;99.90
64226;DHT22;50545;56.064;26.178;2024-02-26T06:31:03;4.90;99.90
64226;DHT22;50545;56.064;26.178;2024-02-26T06:33:31;4.90;99.90
64226;DHT22;50545;56.064;26.178;2024-02-26T06:35:59;5.00;99.90
64226;DHT22;50545;56.064;26.178;2024-02-26T06:38:26;5.10;99.90
64226;DHT22;50545;56.064;26.178;2024-02-26T06:40:54;5.20;99.90
64226;DHT22;50545;56.064;26.178;2024-02-26T06:43:21;5.20;99.90
64226;DHT22;50545;56.064;26.178;2024-02-26T06:45:49;5.30;99.90
64226;DHT22;50545;56.064;26.178;2024-02-26T06:48:16;5.40;99.90
64226;DHT22;50545;56.064;26.178;2024-02-26T06:50:44;5.50;99.90
64226;DHT22;50545;56.064;26.178;2024-02-26T06:53:11;5.50;99.90
64226;DHT22;50545;56.064;26.178;2024-02-26T06:55:39;5.60;99.90
64226;DHT22;50545;56.064;26.178;2024-02-26T06:58:08;5.60;99.90
64226;DHT22;50545;56.064;26.178;2024-02-26T07:00:36;5.60;99.90
64226;DHT22;50545;56.064;26.178;2024-02-26T07:03:03;5.70;99.90
64226;DHT22;50545;56.064;26.178;2024-02-26T07:05:31;5.70;99.90
64226;DHT22;50545;56.064;26.178;2024-02-26T07:07:58;5.70;99.90
64226;DHT22;50545;56.064;26.178;2024-02-26T07:10:26;5.70;99.90
64226;DHT22;50545;56.064;26.178;2024-02-26T07:12:53;5.70;99.90
64226;DHT22;50545;56.064;26.178;2024-02-26T07:15:21;5.70;99.90
64226;DHT22;50545;56.064;26.178;2024-02-26T07:17:48;5.70;99.90
64226;DHT22;50545;56.064;26.178;2024-02-26T07:20:16;5.70;99.90
64226;DHT22;50545;56.064;26.178;2024-02-26T07:22:45;5.70;99.90
64226;DHT22;50545;56.064;26.178;2024-02-26T07:25:13;5.70;99.90
64226;DHT22;50545;56.064;26.178;2024-02-26T07:27:40;5.70;99.90
64226;DHT22;50545;56.064;26.178;2024-02-26T07:30:08;5.70;99.90
64226;DHT22;50545;56.064;26.178;2024-02-26T07:32:36;5.70;99.90
64226;DHT22;50545;56.064;26.178;2024-02-26T07:35:04;5.70;99.90
64226;DHT22;50545;56.064;26.178;2024-02-26T07:37:32;5.70;99.90
64226;DHT22;50545;56.064;26.178;2024-02-26T07:40:00;5.70;99.90
64226;DHT22;50545;56.064;26.178;2024-02-26T07:42:28;5.70;99.90
64226;DHT22;50545;56.064;26.178;2024-02-26T07:44:55;5.60;99.90
64226;DHT22;50545;56.064;26.178;2024-02-26T07:47:23;5.70;99.90
64226;DHT22;50545;56.064;26.178;2024-02-26T07:49:50;5.70;99.90
64226;DHT22;50545;56.064;26.178;2024-02-26T07:52:17;5.70;99.90
64226;DHT22;50545;56.064;26.178;2024-02-26T07:54:45;5.70;99.90
64226;DHT22;50545;56.064;26.178;2024-02-26T07:57:12;5.70;99.90
64226;DHT22;50545;56.064;26.178;2024-02-26T07:59:43;5.70;99.90
64226;DHT22;50545;56.064;26.178;2024-02-26T08:02:12;5.70;99.90
64226;DHT22;50545;56.064;26.178;2024-02-26T08:04:41;5.80;99.90
64226;DHT22;50545;56.064;26.178;2024-02-26T08:07:08;5.80;99.90
64226;DHT22;50545;56.064;26.178;2024-02-26T08:09:35;5.90;99.90
64226;DHT22;50545;56.064;26.178;2024-02-26T08:12:03;6.00;99.90
64226;DHT22;50545;56.064;26.178;2024-02-26T08:14:30;6.00;99.90
64226;DHT22;50545;56.064;26.178;2024-02-26T08:16:59;6.10;99.90
64226;DHT22;50545;56.064;26.178;2024-02-26T08:19:27;6.10;99.90
64226;DHT22;50545;56.064;26.178;2024-02-26T08:21:55;6.10;99.90
64226;DHT22;50545;56.064;26.178;2024-02-26T08:24:23;6.10;99.90
64226;DHT22;50545;56.064;26.178;2024-02-26T08:26:51;6.20;99.90
64226;DHT22;50545;56.064;26.178;2024-02-26T08:29:18;6.20;99.90
64226;DHT22;50545;56.064;26.178;2024-02-26T08:31:47;6.20;99.90
64226;DHT22;50545;56.064;26.178;2024-02-26T08:34:15;6.30;99.90
64226;DHT22;50545;56.064;26.178;2024-02-26T08:36:42;6.20;99.90
64226;DHT22;50545;56.064;26.178;2024-02-26T08:39:10;6.30;99.90
64226;DHT22;50545;56.064;26.178;2024-02-26T08:41:37;6.30;99.90
64226;DHT22;50545;56.064;26.178;2024-02-26T08:44:05;6.40;99.90
64226;DHT22;50545;56.064;26.178;2024-02-26T08:46:32;6.40;99.90
64226;DHT22;50545;56.064;26.178;2024-02-26T08:49:00;6.40;99.90
64226;DHT22;50545;56.064;26.178;2024-02-26T08:51:27;6.40;99.90
64226;DHT22;50545;56.064;26.178;2024-02-26T08:53:55;6.50;99.90
64226;DHT22;50545;56.064;26.178;2024-02-26T08:56:22;6.40;99.90
64226;DHT22;50545;56.064;26.178;2024-02-26T08:58:50;6.40;99.90
64226;DHT22;50545;56.064;26.178;2024-02-26T09:01:20;6.40;99.90
64226;DHT22;50545;56.064;26.178;2024-02-26T09:03:50;6.40;99.90
64226;DHT22;50545;56.064;26.178;2024-02-26T09:06:18;6.50;99.90
64226;DHT22;50545;56.064;26.178;2024-02-26T09:08:45;6.50;99.90
64226;DHT22;50545;56.064;26.178;2024-02-26T09:11:12;6.50;99.90
64226;DHT22;50545;56.064;26.178;2024-02-26T09:13:40;6.50;99.90
64226;DHT22;50545;56.064;26.178;2024-02-26T09:16:07;6.50;99.90
64226;DHT22;50545;56.064;26.178;2024-02-26T09:18:34;6.50;99.90
64226;DHT22;50545;56.064;26.178;2024-02-26T09:21:05;6.50;99.90
64226;DHT22;50545;56.064;26.178;2024-02-26T09:23:33;6.60;99.90
64226;DHT22;50545;56.064;26.178;2024-02-26T09:26:02;6.60;99.90
64226;DHT22;50545;56.064;26.178;2024-02-26T09:28:29;6.60;99.90
64226;DHT22;50545;56.064;26.178;2024-02-26T09:31:01;6.60;99.90
64226;DHT22;50545;56.064;26.178;2024-02-26T09:33:29;6.60;99.90
64226;DHT22;50545;56.064;26.178;2024-02-26T09:35:58;6.70;99.90
64226;DHT22;50545;56.064;26.178;2024-02-26T09:38:25;6.70;99.90
64226;DHT22;50545;56.064;26.178;2024-02-26T09:40:53;6.80;99.90
64226;DHT22;50545;56.064;26.178;2024-02-26T09:43:23;6.80;99.90
64226;DHT22;50545;56.064;26.178;2024-02-26T09:45:53;6.80;99.90
64226;DHT22;50545;56.064;26.178;2024-02-26T09:48:22;6.90;99.90
64226;DHT22;50545;56.064;26.178;2024-02-26T09:50:51;6.90;99.90
64226;DHT22;50545;56.064;26.178;2024-02-26T09:53:21;6.90;99.90
64226;DHT22;50545;56.064;26.178;2024-02-26T09:55:49;6.90;99.90
64226;DHT22;50545;56.064;26.178;2024-02-26T09:58:17;7.00;99.90
64226;DHT22;50545;56.064;26.178;2024-02-26T10:00:51;7.00;99.90
64226;DHT22;50545;56.064;26.178;2024-02-26T10:03:22;6.90;99.90
64226;DHT22;50545;56.064;26.178;2024-02-26T10:05:52;7.00;99.90
64226;DHT22;50545;56.064;26.178;2024-02-26T10:08:23;7.00;99.90
64226;DHT22;50545;56.064;26.178;2024-02-26T10:10:51;6.90;99.90
64226;DHT22;50545;56.064;26.178;2024-02-26T10:13:19;7.00;99.90
64226;DHT22;50545;56.064;26.178;2024-02-26T10:15:47;6.90;99.90
64226;DHT22;50545;56.064;26.178;2024-02-26T10:18:15;7.00;99.90
64226;DHT22;50545;56.064;26.178;2024-02-26T10:20:45;7.00;99.90
64226;DHT22;50545;56.064;26.178;2024-02-26T10:23:26;7.00;99.90
64226;DHT22;50545;56.064;26.178;2024-02-26T10:25:56;7.00;99.90
64226;DHT22;50545;56.064;26.178;2024-02-26T10:28:23;7.00;99.90
64226;DHT22;50545;56.064;26.178;2024-02-26T10:30:52;7.10;99.90
64226;DHT22;50545;56.064;26.178;2024-02-26T10:33:20;7.00;99.90
64226;DHT22;50545;56.064;26.178;2024-02-26T10:35:47;7.00;99.90
64226;DHT22;50545;56.064;26.178;2024-02-26T10:38:17;7.00;99.90
64226;DHT22;50545;56.064;26.178;2024-02-26T10:40:49;7.00;99.90
64226;DHT22;50545;56.064;26.178;2024-02-26T10:43:17;7.00;99.90
64226;DHT22;50545;56.064;26.178;2024-02-26T10:45:45;7.00;99.90
64226;DHT22;50545;56.064;26.178;2024-02-26T10:48:14;7.00;99.90
64226;DHT22;50545;56.064;26.178;2024-02-26T10:50:43;7.00;99.90
64226;DHT22;50545;56.064;26.178;2024-02-26T10:53:22;7.10;99.90
64226;DHT22;50545;56.064;26.178;2024-02-26T10:56:01;7.10;99.90
64226;DHT22;50545;56.064;26.178;2024-02-26T10:58:29;7.10;99.90
64226;DHT22;50545;56.064;26.178;2024-02-26T11:00:58;7.20;99.90
64226;DHT22;50545;56.064;26.178;2024-02-26T11:03:26;7.20;99.90
64226;DHT22;50545;56.064;26.178;2024-02-26T11:05:56;7.20;99.90
64226;DHT22;50545;56.064;26.178;2024-02-26T11:08:26;7.20;99.90
64226;DHT22;50545;56.064;26.178;2024-02-26T11:10:54;7.20;99.90
64226;DHT22;50545;56.064;26.178;2024-02-26T11:13:26;7.20;99.90
64226;DHT22;50545;56.064;26.178;2024-02-26T11:15:56;7.30;99.90
64226;DHT22;50545;56.064;26.178;2024-02-26T11:18:27;7.30;99.90
64226;DHT22;50545;56.064;26.178;2024-02-26T11:20:55;7.30;99.90
64226;DHT22;50545;56.064;26.178;2024-02-26T11:23:25;7.30;99.90
64226;DHT22;50545;56.064;26.178;2024-02-26T11:25:56;7.30;99.90
64226;DHT22;50545;56.064;26.178;2024-02-26T11:28:27;7.30;99.90
64226;DHT22;50545;56.064;26.178;2024-02-26T11:30:55;7.30;99.90
64226;DHT22;50545;56.064;26.178;2024-02-26T11:33:27;7.30;99.90
64226;DHT22;50545;56.064;26.178;2024-02-26T11:35:55;7.30;99.90
64226;DHT22;50545;56.064;26.178;2024-02-26T11:38:25;7.30;99.90
64226;DHT22;50545;56.064;26.178;2024-02-26T11:40:54;7.40;99.90
64226;DHT22;50545;56.064;26.178;2024-02-26T11:44:00;7.50;99.90
64226;DHT22;50545;56.064;26.178;2024-02-26T11:46:29;7.50;99.90
64226;DHT22;50545;56.064;26.178;2024-02-26T11:49:02;7.60;99.90
64226;DHT22;50545;56.064;26.178;2024-02-26T11:51:34;7.60;99.90
64226;DHT22;50545;56.064;26.178;2024-02-26T11:54:02;7.60;99.90
64226;DHT22;50545;56.064;26.178;2024-02-26T11:56:34;7.70;99.90
64226;DHT22;50545;56.064;26.178;2024-02-26T11:59:10;7.70;99.90
64226;DHT22;50545;56.064;26.178;2024-02-26T12:01:45;7.70;99.90
64226;DHT22;50545;56.064;26.178;2024-02-26T12:04:26;7.80;99.90
64226;DHT22;50545;56.064;26.178;2024-02-26T12:06:58;7.80;99.90
64226;DHT22;50545;56.064;26.178;2024-02-26T12:09:46;7.70;99.90
64226;DHT22;50545;56.064;26.178;2024-02-26T12:12:18;7.80;99.90
64226;DHT22;50545;56.064;26.178;2024-02-26T12:14:58;7.80;99.90
64226;DHT22;50545;56.064;26.178;2024-02-26T12:17:25;7.80;99.90
64226;DHT22;50545;56.064;26.178;2024-02-26T12:19:53;7.80;99.90
64226;DHT22;50545;56.064;26.178;2024-02-26T12:22:21;7.90;99.90
64226;DHT22;50545;56.064;26.178;2024-02-26T12:24:58;7.90;99.90
64226;DHT22;50545;56.064;26.178;2024-02-26T12:27:25;7.90;99.90
64226;DHT22;50545;56.064;26.178;2024-02-26T12:29:53;7.90;99.90
64226;DHT22;50545;56.064;26.178;2024-02-26T12:32:20;7.90;99.90
64226;DHT22;50545;56.064;26.178;2024-02-26T12:34:48;7.90;99.90
64226;DHT22;50545;56.064;26.178;2024-02-26T12:37:17;7.90;99.90
64226;DHT22;50545;56.064;26.178;2024-02-26T12:39:44;7.90;99.90
64226;DHT22;50545;56.064;26.178;2024-02-26T12:42:14;7.90;99.90
64226;DHT22;50545;56.064;26.178;2024-02-26T12:44:41;7.80;99.90
64226;DHT22;50545;56.064;26.178;2024-02-26T12:47:09;7.80;99.90
64226;DHT22;50545;56.064;26.178;2024-02-26T12:49:41;7.80;99.90
64226;DHT22;50545;56.064;26.178;2024-02-26T12:52:09;7.80;99.90
64226;DHT22;50545;56.064;26.178;2024-02-26T12:54:37;7.80;99.90
64226;DHT22;50545;56.064;26.178;2024-02-26T12:57:07;7.90;99.90
64226;DHT22;50545;56.064;26.178;2024-02-26T12:59:37;7.90;99.90
64226;DHT22;50545;56.064;26.178;2024-02-26T13:02:05;7.90;99.90
64226;DHT22;50545;56.064;26.178;2024-02-26T13:04:34;8.00;99.90
64226;DHT22;50545;56.064;26.178;2024-02-26T13:07:04;8.00;99.90
64226;DHT22;50545;56.064;26.178;2024-02-26T13:09:33;8.00;99.90
64226;DHT22;50545;56.064;26.178;2024-02-26T13:12:06;8.00;99.90
64226;DHT22;50545;56.064;26.178;2024-02-26T13:14:34;8.10;99.90
64226;DHT22;50545;56.064;26.178;2024-02-26T13:17:03;8.10;99.90
64226;DHT22;50545;56.064;26.178;2024-02-26T13:19:31;8.10;99.90
64226;DHT22;50545;56.064;26.178;2024-02-26T13:22:06;8.10;99.90
64226;DHT22;50545;56.064;26.178;2024-02-26T13:24:35;8.10;99.90
64226;DHT22;50545;56.064;26.178;2024-02-26T13:27:03;8.10;99.90
64226;DHT22;50545;56.064;26.178;2024-02-26T13:29:32;8.10;99.90
64226;DHT22;50545;56.064;26.178;2024-02-26T13:32:00;8.00;99.90
64226;DHT22;50545;56.064;26.178;2024-02-26T13:34:28;8.00;99.90
64226;DHT22;50545;56.064;26.178;2024-02-26T13:36:57;8.00;99.90
64226;DHT22;50545;56.064;26.178;2024-02-26T13:39:25;8.10;99.90
64226;DHT22;50545;56.064;26.178;2024-02-26T13:41:54;8.10;99.90
64226;DHT22;50545;56.064;26.178;2024-02-26T13:44:23;8.10;99.90
64226;DHT22;50545;56.064;26.178;2024-02-26T13:46:50;8.10;99.90
64226;DHT22;50545;56.064;26.178;2024-02-26T13:49:17;8.10;99.90
64226;DHT22;50545;56.064;26.178;2024-02-26T13:51:45;8.10;99.90
64226;DHT22;50545;56.064;26.178;2024-02-26T13:54:13;8.10;99.90
64226;DHT22;50545;56.064;26.178;2024-02-26T13:56:42;8.10;99.90
64226;DHT22;50545;56.064;26.178;2024-02-26T13:59:13;8.10;99.90
64226;DHT22;50545;56.064;26.178;2024-02-26T14:01:40;8.20;99.90
64226;DHT22;50545;56.064;26.178;2024-02-26T14:04:07;8.10;99.90
64226;DHT22;50545;56.064;26.178;2024-02-26T14:06:36;8.10;99.90
64226;DHT22;50545;56.064;26.178;2024-02-26T14:09:04;8.10;99.90
64226;DHT22;50545;56.064;26.178;2024-02-26T14:11:32;8.10;99.90
64226;DHT22;50545;56.064;26.178;2024-02-26T14:13:59;8.20;99.90
64226;DHT22;50545;56.064;26.178;2024-02-26T14:16:26;8.20;99.90
64226;DHT22;50545;56.064;26.178;2024-02-26T14:18:58;8.20;99.90
64226;DHT22;50545;56.064;26.178;2024-02-26T14:21:25;8.20;99.90
64226;DHT22;50545;56.064;26.178;2024-02-26T14:23:54;8.20;99.90
64226;DHT22;50545;56.064;26.178;2024-02-26T14:26:23;8.20;99.90
64226;DHT22;50545;56.064;26.178;2024-02-26T14:28:50;8.20;99.90
64226;DHT22;50545;56.064;26.178;2024-02-26T14:31:18;8.20;99.90
64226;DHT22;50545;56.064;26.178;2024-02-26T14:33:45;8.10;99.90
64226;DHT22;50545;56.064;26.178;2024-02-26T14:36:14;8.10;99.90
64226;DHT22;50545;56.064;26.178;2024-02-26T14:38:44;8.10;99.90
64226;DHT22;50545;56.064;26.178;2024-02-26T14:41:11;8.10;99.90
64226;DHT22;50545;56.064;26.178;2024-02-26T14:43:38;8.10;99.90
64226;DHT22;50545;56.064;26.178;2024-02-26T14:46:06;8.10;99.90
64226;DHT22;50545;56.064;26.178;2024-02-26T14:48:34;8.00;99.90
64226;DHT22;50545;56.064;26.178;2024-02-26T14:51:02;8.00;99.90
64226;DHT22;50545;56.064;26.178;2024-02-26T14:53:30;8.00;99.90
64226;DHT22;50545;56.064;26.178;2024-02-26T14:55:57;8.00;99.90
64226;DHT22;50545;56.064;26.178;2024-02-26T14:58:24;8.00;99.90
64226;DHT22;50545;56.064;26.178;2024-02-26T15:00:51;7.90;99.90
64226;DHT22;50545;56.064;26.178;2024-02-26T15:03:19;7.90;99.90
64226;DHT22;50545;56.064;26.178;2024-02-26T15:05:46;7.80;99.90
64226;DHT22;50545;56.064;26.178;2024-02-26T15:08:14;7.80;99.90
64226;DHT22;50545;56.064;26.178;2024-02-26T15:10:43;7.70;99.90
64226;DHT22;50545;56.064;26.178;2024-02-26T15:13:15;7.70;99.90
64226;DHT22;50545;56.064;26.178;2024-02-26T15:15:45;7.60;99.90
64226;DHT22;50545;56.064;26.178;2024-02-26T15:18:12;7.60;99.90
64226;DHT22;50545;56.064;26.178;2024-02-26T15:20:43;7.60;99.90
64226;DHT22;50545;56.064;26.178;2024-02-26T15:23:11;7.60;99.90
64226;DHT22;50545;56.064;26.178;2024-02-26T15:25:38;7.50;99.90
64226;DHT22;50545;56.064;26.178;2024-02-26T15:28:06;7.50;99.90
64226;DHT22;50545;56.064;26.178;2024-02-26T15:30:33;7.50;99.90
64226;DHT22;50545;56.064;26.178;2024-02-26T15:33:01;7.50;99.90
64226;DHT22;50545;56.064;26.178;2024-02-26T15:35:29;7.50;99.90
64226;DHT22;50545;56.064;26.178;2024-02-26T15:37:57;7.50;99.90